Time;durP1;ratioP1;P1;durP2;ratioP2;P2;SDS_P1;SDS_P2;PMS_P1;PMS_P2;Temp;Humidity;BMP_temperature;BMP_pressure;BME280_temperature;BME280_humidity;BME280_pressure;Samples;Min_cycle;Max_cycle;Signal;HPM_P1;HPM_P2
2023/03/15 00:01:05;;;;;;;3.95;2.75;;;;;;;-144.57;100.00;62443.72;5011091;28;20049;-62
2023/03/15 00:03:35;;;;;;;5.23;2.73;;;;;;;-144.57;100.00;62443.72;5011497;28;20052;-61
2023/03/15 00:06:02;;;;;;;4.43;2.83;;;;;;;-144.57;100.00;62443.72;4993845;28;20725;-62
2023/03/15 00:08:28;;;;;;;4.25;3.00;;;;;;;-144.57;100.00;62443.72;5011273;28;20392;-61
2023/03/15 00:10:54;;;;;;;3.25;2.55;;;;;;;-144.57;100.00;62443.72;5011431;28;20446;-60
2023/03/15 00:13:20;;;;;;;9.45;2.83;;;;;;;-144.57;100.00;62443.72;5011004;28;20045;-61
2023/03/15 00:15:47;;;;;;;5.05;2.67;;;;;;;-144.57;100.00;62443.72;5011291;28;20046;-61
2023/03/15 00:18:14;;;;;;;7.07;3.15;;;;;;;-144.57;100.00;62443.72;5011009;28;20075;-61
2023/03/15 00:20:39;;;;;;;8.15;3.80;;;;;;;-144.57;100.00;62443.72;4996849;28;20499;-61
2023/03/15 00:23:05;;;;;;;4.60;2.72;;;;;;;-144.57;100.00;62443.72;5014669;28;20176;-61
2023/03/15 00:25:30;;;;;;;3.72;2.83;;;;;;;-144.57;100.00;62443.72;5014749;28;20091;-61
2023/03/15 00:27:56;;;;;;;5.95;3.17;;;;;;;-144.57;100.00;62443.72;5014381;28;20050;-61
2023/03/15 00:30:22;;;;;;;4.35;2.88;;;;;;;-144.57;100.00;62443.72;5014775;28;20398;-61
2023/03/15 00:32:47;;;;;;;4.90;2.80;;;;;;;-144.57;100.00;62443.72;4997005;28;20092;-61
2023/03/15 00:35:13;;;;;;;4.63;3.03;;;;;;;-144.57;100.00;62443.72;5014013;28;20474;-61
2023/03/15 00:37:39;;;;;;;7.97;2.97;;;;;;;-144.57;100.00;62443.72;4996838;28;20042;-62
2023/03/15 00:40:06;;;;;;;4.97;3.05;;;;;;;-144.57;100.00;62443.72;5013016;28;20057;-61
2023/03/15 00:42:32;;;;;;;6.03;3.10;;;;;;;-144.57;100.00;62443.72;5014389;28;20041;-62
2023/03/15 00:44:58;;;;;;;5.80;3.13;;;;;;;-144.57;100.00;62443.72;4996473;28;20588;-60
2023/03/15 00:47:24;;;;;;;4.35;3.13;;;;;;;-144.57;100.00;62443.72;5014089;28;20116;-62
2023/03/15 00:49:49;;;;;;;6.07;3.00;;;;;;;-144.57;100.00;62443.72;5013450;28;20542;-61
2023/03/15 00:52:16;;;;;;;6.53;3.25;;;;;;;-144.57;100.00;62443.72;4996064;28;20048;-62
2023/03/15 00:54:51;;;;;;;4.65;3.15;;;;;;;-144.57;100.00;62443.72;5012329;28;20407;-61
2023/03/15 00:57:16;;;;;;;5.03;3.15;;;;;;;-144.57;100.00;62443.72;5012035;28;20050;-61
2023/03/15 00:59:43;;;;;;;5.88;3.30;;;;;;;-144.57;100.00;62443.72;5013834;28;20491;-61
2023/03/15 01:02:10;;;;;;;6.28;3.20;;;;;;;-144.57;100.00;62443.72;4996683;28;20045;-61
2023/03/15 01:04:35;;;;;;;5.60;3.15;;;;;;;-144.57;100.00;62443.72;5013793;28;20568;-62
2023/03/15 01:07:01;;;;;;;5.88;3.20;;;;;;;-144.57;100.00;62443.72;5013883;28;20038;-61
2023/03/15 01:09:27;;;;;;;5.22;3.45;;;;;;;-144.57;100.00;62443.72;5012523;28;20045;-62
2023/03/15 01:11:53;;;;;;;4.93;3.20;;;;;;;-144.57;100.00;62443.72;4996334;28;20407;-61
2023/03/15 01:14:19;;;;;;;5.57;3.00;;;;;;;-144.57;100.00;62443.72;4996168;28;20042;-60
2023/03/15 01:16:45;;;;;;;5.45;3.50;;;;;;;-144.57;100.00;62443.72;4996390;28;20046;-60
2023/03/15 01:19:11;;;;;;;6.40;3.25;;;;;;;-144.57;100.00;62443.72;4996021;28;20049;-63
2023/03/15 01:21:38;;;;;;;6.03;3.30;;;;;;;-144.57;100.00;62443.72;5013988;28;20054;-61
2023/03/15 01:24:03;;;;;;;5.22;3.28;;;;;;;-144.57;100.00;62443.72;5013592;28;20132;-61
2023/03/15 01:26:29;;;;;;;4.78;3.22;;;;;;;-144.57;100.00;62443.72;5013986;28;20526;-62
2023/03/15 01:28:55;;;;;;;5.25;3.28;;;;;;;-144.57;100.00;62443.72;5013325;28;20411;-61
2023/03/15 01:31:24;;;;;;;7.43;3.50;;;;;;;-144.57;100.00;62443.72;5011441;28;20050;-61
2023/03/15 01:33:50;;;;;;;7.50;3.97;;;;;;;-144.57;100.00;62443.72;5012477;28;20412;-62
2023/03/15 01:36:16;;;;;;;5.82;3.80;;;;;;;-144.57;100.00;62443.72;5012237;28;20050;-62
2023/03/15 01:38:42;;;;;;;7.80;3.95;;;;;;;-144.57;100.00;62443.72;5012039;28;20042;-60
2023/03/15 01:41:10;;;;;;;5.88;3.55;;;;;;;-144.57;100.00;62443.72;4979555;28;20049;-62
2023/03/15 01:43:36;;;;;;;8.98;3.58;;;;;;;-144.57;100.00;62443.72;5011999;28;20045;-61
2023/03/15 01:46:05;;;;;;;5.18;3.38;;;;;;;-144.57;100.00;62443.72;4995846;28;20566;-61
2023/03/15 01:48:43;;;;;;;7.18;3.40;;;;;;;-144.57;100.00;62443.72;5011909;28;20054;-62
2023/03/15 01:51:32;;;;;;;5.13;3.67;;;;;;;-144.57;100.00;62443.72;5011851;28;20061;-62
2023/03/15 01:54:24;;;;;;;6.95;3.88;;;;;;;-144.57;100.00;62443.72;4995344;28;20065;-62
2023/03/15 01:56:56;;;;;;;6.97;4.25;;;;;;;-144.57;100.00;62443.72;4974415;28;20109;-62
2023/03/15 01:59:26;;;;;;;8.07;4.40;;;;;;;-144.57;100.00;62443.72;5008067;28;20038;-62
2023/03/15 02:01:53;;;;;;;6.03;3.50;;;;;;;-144.57;100.00;62443.72;4991389;28;20058;-62
2023/03/15 02:04:24;;;;;;;4.97;3.42;;;;;;;-144.57;100.00;62443.72;4992182;28;20496;-61
2023/03/15 02:07:00;;;;;;;4.68;3.65;;;;;;;-144.57;100.00;62443.72;4975976;28;20038;-62
2023/03/15 02:09:37;;;;;;;5.18;3.30;;;;;;;-144.57;100.00;62443.72;4991861;28;20045;-62
2023/03/15 02:12:04;;;;;;;7.82;3.90;;;;;;;-144.57;100.00;62443.72;4992096;28;20057;-61
2023/03/15 02:14:31;;;;;;;7.80;3.90;;;;;;;-144.57;100.00;62443.72;4991807;28;20038;-60
2023/03/15 02:16:57;;;;;;;7.22;3.72;;;;;;;-144.57;100.00;62443.72;4975829;28;20495;-62
2023/03/15 02:19:36;;;;;;;6.25;3.47;;;;;;;-144.57;100.00;62443.72;4992081;28;20100;-62
2023/03/15 02:22:12;;;;;;;4.00;3.28;;;;;;;-144.57;100.00;62443.72;5007266;28;20054;-61
2023/03/15 02:24:46;;;;;;;6.57;3.50;;;;;;;-144.57;100.00;62443.72;5007931;28;20077;-61
2023/03/15 02:27:12;;;;;;;5.55;3.58;;;;;;;-144.57;100.00;62443.72;4991681;28;20048;-61
2023/03/15 02:29:37;;;;;;;6.07;4.00;;;;;;;-144.57;100.00;62443.72;4991698;28;20038;-61
2023/03/15 02:32:03;;;;;;;6.45;4.00;;;;;;;-144.57;100.00;62443.72;4991409;28;20050;-63
2023/03/15 02:34:30;;;;;;;5.80;3.67;;;;;;;-144.57;100.00;62443.72;4991457;28;20042;-61
2023/03/15 02:36:56;;;;;;;8.10;4.05;;;;;;;-144.57;100.00;62443.72;4991411;28;20132;-63
2023/03/15 02:39:23;;;;;;;6.35;3.70;;;;;;;-144.57;100.00;62443.72;4990701;28;20133;-61
2023/03/15 02:41:53;;;;;;;5.22;3.60;;;;;;;-144.57;100.00;62443.72;4992843;28;20418;-62
2023/03/15 02:44:24;;;;;;;6.10;3.92;;;;;;;-144.57;100.00;62443.72;4991489;28;20052;-61
2023/03/15 02:46:52;;;;;;;5.88;3.72;;;;;;;-144.57;100.00;62443.72;4991484;28;20499;-60
2023/03/15 02:49:22;;;;;;;5.80;3.92;;;;;;;-144.57;100.00;62443.72;4991179;28;20046;-61
2023/03/15 02:51:48;;;;;;;7.07;3.88;;;;;;;-144.57;100.00;62443.72;4991245;28;20050;-61
2023/03/15 02:54:15;;;;;;;7.70;3.65;;;;;;;-144.57;100.00;62443.72;4991028;28;20046;-61
2023/03/15 02:56:41;;;;;;;4.78;3.80;;;;;;;-144.57;100.00;62443.72;4995987;28;20104;-62
2023/03/15 02:59:07;;;;;;;8.30;4.10;;;;;;;-144.57;100.00;62443.72;5011851;28;20411;-63
2023/03/15 03:01:35;;;;;;;6.53;3.80;;;;;;;-144.57;100.00;62443.72;5010813;28;20145;-61
2023/03/15 03:04:02;;;;;;;5.95;4.05;;;;;;;-144.57;100.00;62443.72;4994181;28;20095;-62
2023/03/15 03:06:28;;;;;;;5.55;3.92;;;;;;;-144.57;100.00;62443.72;4994450;28;20108;-61
2023/03/15 03:08:54;;;;;;;5.82;4.15;;;;;;;-144.57;100.00;62443.72;4994014;28;20038;-61
2023/03/15 03:11:19;;;;;;;5.82;3.85;;;;;;;-144.57;100.00;62443.72;4994090;28;20068;-62
2023/03/15 03:13:45;;;;;;;6.57;4.07;;;;;;;-144.57;100.00;62443.72;5010516;28;20416;-61
2023/03/15 03:16:11;;;;;;;6.63;3.90;;;;;;;-144.57;100.00;62443.72;4994312;28;20053;-60
2023/03/15 03:18:37;;;;;;;6.13;4.38;;;;;;;-144.57;100.00;62443.72;5010389;28;20484;-61
2023/03/15 03:21:05;;;;;;;8.40;4.15;;;;;;;-144.57;100.00;62443.72;5011774;28;20483;-61
2023/03/15 03:23:32;;;;;;;12.75;4.32;;;;;;;-144.57;100.00;62443.72;5010396;28;20548;-61
2023/03/15 03:25:59;;;;;;;5.85;3.97;;;;;;;-144.57;100.00;62443.72;4993619;28;20057;-61
2023/03/15 03:28:27;;;;;;;5.90;4.18;;;;;;;-144.57;100.00;62443.72;5011364;28;20042;-62
2023/03/15 03:30:53;;;;;;;6.20;3.88;;;;;;;-144.57;100.00;62443.72;5009493;28;20050;-62
2023/03/15 03:33:20;;;;;;;7.00;3.50;;;;;;;-144.57;100.00;62443.72;4993393;28;20133;-61
2023/03/15 03:35:47;;;;;;;5.82;3.97;;;;;;;-144.57;100.00;62443.72;5010159;28;20056;-61
2023/03/15 03:38:13;;;;;;;5.57;4.05;;;;;;;-144.57;100.00;62443.72;4993779;28;20148;-62
2023/03/15 03:40:44;;;;;;;7.20;3.55;;;;;;;-144.57;100.00;62443.72;5010314;28;20108;-61
2023/03/15 03:43:10;;;;;;;8.93;4.20;;;;;;;-144.57;100.00;62443.72;4993420;28;20049;-62
2023/03/15 03:45:36;;;;;;;12.00;4.47;;;;;;;-144.57;100.00;62443.72;5010144;28;20052;-61
2023/03/15 03:48:01;;;;;;;5.82;3.80;;;;;;;-144.57;100.00;62443.72;5010143;28;20042;-62
2023/03/15 03:50:28;;;;;;;7.50;4.20;;;;;;;-144.57;100.00;62443.72;5010042;28;20046;-61
2023/03/15 03:52:53;;;;;;;8.35;4.10;;;;;;;-144.57;100.00;62443.72;5010249;28;20072;-63
2023/03/15 03:55:26;;;;;;;6.65;4.00;;;;;;;-144.57;100.00;62443.72;5013120;28;20069;-62
2023/03/15 03:57:52;;;;;;;4.93;3.83;;;;;;;-144.57;100.00;62443.72;5013040;28;20096;-61
2023/03/15 04:00:34;;;;;;;6.15;3.88;;;;;;;-144.57;100.00;62443.72;5013589;28;20049;-62
2023/03/15 04:03:00;;;;;;;5.68;3.95;;;;;;;-144.57;100.00;62443.72;5013738;28;20133;-62
2023/03/15 04:05:28;;;;;;;6.68;4.72;;;;;;;-144.57;100.00;62443.72;4997442;28;20091;-61
2023/03/15 04:07:53;;;;;;;6.63;4.03;;;;;;;-144.57;100.00;62443.72;5013493;28;20073;-61
2023/03/15 04:10:25;;;;;;;6.20;3.95;;;;;;;-144.57;100.00;62443.72;4997030;28;20054;-62
2023/03/15 04:12:55;;;;;;;8.68;4.32;;;;;;;-144.57;100.00;62443.72;5013298;28;20565;-61
2023/03/15 04:15:23;;;;;;;5.63;3.90;;;;;;;-144.57;100.00;62443.72;5013499;28;20496;-62
2023/03/15 04:17:54;;;;;;;7.05;3.88;;;;;;;-144.57;100.00;62443.72;4996994;28;20081;-61
2023/03/15 04:20:25;;;;;;;9.70;4.10;;;;;;;-144.57;100.00;62443.72;5013400;28;20112;-63
2023/03/15 04:22:51;;;;;;;8.07;4.65;;;;;;;-144.57;100.00;62443.72;5014374;28;20038;-62
2023/03/15 04:25:27;;;;;;;6.47;4.13;;;;;;;-144.57;100.00;62443.72;5013354;28;20077;-61
2023/03/15 04:28:25;;;;;;;7.05;4.43;;;;;;;-144.57;100.00;62443.72;4981118;28;20140;-61
2023/03/15 04:31:02;;;;;;;7.80;4.45;;;;;;;-144.57;100.00;62443.72;5013409;28;20058;-61
2023/03/15 04:33:39;;;;;;;9.05;4.22;;;;;;;-144.57;100.00;62443.72;4996710;28;20054;-61
2023/03/15 04:36:34;;;;;;;6.88;4.32;;;;;;;-144.57;100.00;62443.72;5005389;28;20062;-61
2023/03/15 04:39:25;;;;;;;7.18;4.35;;;;;;;-144.57;100.00;62443.72;5018400;28;20042;-62
2023/03/15 04:42:04;;;;;;;6.68;4.43;;;;;;;-144.57;100.00;62443.72;5016167;28;20127;-62
2023/03/15 04:44:40;;;;;;;7.68;4.25;;;;;;;-144.57;100.00;62443.72;5031996;28;20288;-61
2023/03/15 04:47:16;;;;;;;6.90;4.50;;;;;;;-144.57;100.00;62443.72;5032729;28;20564;-63
2023/03/15 04:50:00;;;;;;;8.50;4.63;;;;;;;-144.57;100.00;62443.72;5033927;28;20095;-61
2023/03/15 04:52:29;;;;;;;6.40;4.25;;;;;;;-144.57;100.00;62443.72;5033714;28;20048;-62
2023/03/15 04:55:18;;;;;;;9.75;5.40;;;;;;;-144.57;100.00;62443.72;5019337;28;20054;-62
2023/03/15 04:57:57;;;;;;;8.27;4.25;;;;;;;-144.57;100.00;62443.72;5012567;28;20061;-62
2023/03/15 05:00:33;;;;;;;7.05;4.75;;;;;;;-144.57;100.00;62443.72;5012799;28;20062;-61
2023/03/15 05:03:23;;;;;;;5.50;4.17;;;;;;;-144.57;100.00;62443.72;5012724;28;20041;-62
2023/03/15 05:06:06;;;;;;;8.90;4.28;;;;;;;-144.57;100.00;62443.72;4994935;28;20088;-63
2023/03/15 05:08:48;;;;;;;6.10;4.00;;;;;;;-144.57;100.00;62443.72;4979937;28;20053;-62
2023/03/15 05:11:33;;;;;;;8.95;4.65;;;;;;;-144.57;100.00;62443.72;5014040;28;20144;-63
2023/03/15 05:14:17;;;;;;;7.28;4.53;;;;;;;-144.57;100.00;62443.72;5013606;28;20499;-64
2023/03/15 05:16:55;;;;;;;7.93;4.22;;;;;;;-144.57;100.00;62443.72;5014171;28;20058;-62
2023/03/15 05:19:41;;;;;;;7.85;4.40;;;;;;;-144.57;100.00;62443.72;4977593;28;20038;-62
2023/03/15 05:22:26;;;;;;;5.18;3.88;;;;;;;-144.57;100.00;62443.72;5005933;28;20120;-60
2023/03/15 05:25:10;;;;;;;10.32;4.55;;;;;;;-144.57;100.00;62443.72;5010025;28;20057;-61
2023/03/15 05:27:51;;;;;;;;;;;;;;;-144.57;100.00;62443.72;5010308;28;20140;-61
2023/03/15 05:30:35;;;;;;;8.70;4.43;;;;;;;-144.57;100.00;62443.72;5010283;28;19964;-63
2023/03/15 05:33:08;;;;;;;4.75;3.70;;;;;;;-144.57;100.00;62443.72;4994375;28;20491;-62
2023/03/15 05:35:43;;;;;;;7.03;4.50;;;;;;;-144.57;100.00;62443.72;5011809;28;20469;-61
2023/03/15 05:38:30;;;;;;;7.32;4.20;;;;;;;-144.57;100.00;62443.72;4992321;28;20128;-62
2023/03/15 05:41:16;;;;;;;8.35;4.57;;;;;;;-144.57;100.00;62443.72;4987718;28;20454;-62
2023/03/15 05:44:05;;;;;;;7.75;4.65;;;;;;;-144.57;100.00;62443.72;4981633;28;20049;-63
2023/03/15 05:46:51;;;;;;;8.45;4.55;;;;;;;-144.57;100.00;62443.72;5000808;28;20054;-63
2023/03/15 05:49:36;;;;;;;7.63;4.22;;;;;;;-144.57;100.00;62443.72;4989733;28;20041;-62
2023/03/15 05:52:28;;;;;;;6.90;4.10;;;;;;;-144.57;100.00;62443.72;4990753;28;20049;-62
2023/03/15 05:55:10;;;;;;;7.07;4.50;;;;;;;-144.57;100.00;62443.72;5007392;28;20049;-62
2023/03/15 05:57:58;;;;;;;8.35;3.72;;;;;;;-144.57;100.00;62443.72;4992305;28;20054;-61
2023/03/15 06:00:48;;;;;;;8.10;4.60;;;;;;;-144.57;100.00;62443.72;5006814;28;20049;-61
2023/03/15 06:03:27;;;;;;;6.67;4.20;;;;;;;-144.57;100.00;62443.72;4989806;28;20395;-62
2023/03/15 06:06:02;;;;;;;10.35;4.82;;;;;;;-144.57;100.00;62443.72;5006415;28;20088;-61
2023/03/15 06:08:34;;;;;;;6.45;4.22;;;;;;;-144.57;100.00;62443.72;4989815;28;20038;-61
2023/03/15 06:11:00;;;;;;;9.98;4.10;;;;;;;-144.57;100.00;62443.72;4992190;28;20451;-60
2023/03/15 06:13:26;;;;;;;5.80;4.55;;;;;;;-144.57;100.00;62443.72;5008788;28;20073;-63
2023/03/15 06:15:52;;;;;;;7.80;4.07;;;;;;;-144.57;100.00;62443.72;4991821;28;20053;-60
2023/03/15 06:18:18;;;;;;;6.60;4.20;;;;;;;-144.57;100.00;62443.72;4977926;28;20042;-63
2023/03/15 06:20:46;;;;;;;5.93;4.05;;;;;;;-144.57;100.00;62443.72;5007060;28;20052;-62
2023/03/15 06:23:13;;;;;;;8.07;4.55;;;;;;;-144.57;100.00;62443.72;4974554;28;20048;-61
2023/03/15 06:25:44;;;;;;;7.55;4.63;;;;;;;-144.57;100.00;62443.72;4992120;28;20196;-62
2023/03/15 06:28:10;;;;;;;9.35;4.10;;;;;;;-144.57;100.00;62443.72;5005932;28;20475;-63
2023/03/15 06:30:40;;;;;;;8.67;4.83;;;;;;;-144.57;100.00;62443.72;4989662;28;20053;-61
2023/03/15 06:33:06;;;;;;;10.77;4.63;;;;;;;-144.57;100.00;62443.72;4992192;28;20365;-61
2023/03/15 06:35:32;;;;;;;7.93;4.47;;;;;;;-144.57;100.00;62443.72;4988166;28;20042;-62
2023/03/15 06:37:57;;;;;;;7.68;4.32;;;;;;;-144.57;100.00;62443.72;5009240;28;20111;-61
2023/03/15 06:40:23;;;;;;;6.57;4.32;;;;;;;-144.57;100.00;62443.72;5010325;28;20052;-61
2023/03/15 06:42:49;;;;;;;7.95;4.63;;;;;;;-144.57;100.00;62443.72;4990054;28;20573;-62
2023/03/15 06:45:17;;;;;;;9.20;5.15;;;;;;;-144.57;100.00;62443.72;5007368;28;20081;-62
2023/03/15 06:47:44;;;;;;;9.15;4.68;;;;;;;-144.57;100.00;62443.72;4991834;28;20682;-62
2023/03/15 06:50:11;;;;;;;6.57;4.50;;;;;;;-144.57;100.00;62443.72;4976226;28;20503;-62
2023/03/15 06:52:37;;;;;;;6.25;4.22;;;;;;;-144.57;100.00;62443.72;5010308;28;20092;-63
2023/03/15 06:55:04;;;;;;;10.30;4.95;;;;;;;-144.57;100.00;62443.72;4990105;28;20050;-62
2023/03/15 06:57:30;;;;;;;6.88;4.68;;;;;;;-144.57;100.00;62443.72;4991731;28;20081;-62
2023/03/15 06:59:55;;;;;;;6.60;3.97;;;;;;;-144.57;100.00;62443.72;5010246;28;20531;-63
2023/03/15 07:02:21;;;;;;;5.63;4.20;;;;;;;-144.57;100.00;62443.72;5010013;28;20052;-62
2023/03/15 07:04:46;;;;;;;6.63;4.47;;;;;;;-144.57;100.00;62443.72;4992327;28;20049;-62
2023/03/15 07:07:13;;;;;;;8.13;4.25;;;;;;;-144.57;100.00;62443.72;4991918;28;20081;-61
2023/03/15 07:09:39;;;;;;;7.50;4.55;;;;;;;-144.57;100.00;62443.72;5006718;28;20527;-62
2023/03/15 07:12:05;;;;;;;8.25;4.45;;;;;;;-144.57;100.00;62443.72;4990573;28;20053;-62
2023/03/15 07:14:33;;;;;;;8.38;4.80;;;;;;;-144.57;100.00;62443.72;4992072;28;20491;-62
2023/03/15 07:16:58;;;;;;;10.23;4.72;;;;;;;-144.57;100.00;62443.72;4989797;28;20096;-62
2023/03/15 07:19:24;;;;;;;7.53;4.15;;;;;;;-144.57;100.00;62443.72;5009574;28;20049;-62
2023/03/15 07:21:50;;;;;;;6.30;4.47;;;;;;;-144.57;100.00;62443.72;5007497;28;20149;-62
2023/03/15 07:24:16;;;;;;;8.02;4.85;;;;;;;-144.57;100.00;62443.72;4989417;28;20111;-62
2023/03/15 07:26:43;;;;;;;8.63;4.97;;;;;;;-144.57;100.00;62443.72;5006568;28;20041;-61
2023/03/15 07:29:09;;;;;;;8.50;4.60;;;;;;;-144.57;100.00;62443.72;4991676;28;20119;-61
2023/03/15 07:31:36;;;;;;;8.95;4.50;;;;;;;-144.57;100.00;62443.72;4992264;28;20521;-62
2023/03/15 07:34:02;;;;;;;6.95;4.47;;;;;;;-144.57;100.00;62443.72;5006782;28;20041;-61
2023/03/15 07:36:27;;;;;;;6.10;4.47;;;;;;;-144.57;100.00;62443.72;5007303;28;20050;-62
2023/03/15 07:38:53;;;;;;;8.90;4.43;;;;;;;-144.57;100.00;62443.72;5008899;28;20627;-63
2023/03/15 07:41:19;;;;;;;7.40;4.78;;;;;;;-144.57;100.00;62443.72;5010657;28;20049;-62
2023/03/15 07:43:56;;;;;;;9.98;5.00;;;;;;;-144.57;100.00;62443.72;5007609;28;20042;-62
2023/03/15 07:46:21;;;;;;;7.18;4.55;;;;;;;-144.57;100.00;62443.72;4974366;28;20498;-63
2023/03/15 07:48:47;;;;;;;5.90;4.10;;;;;;;-144.57;100.00;62443.72;5009650;28;20134;-63
2023/03/15 07:51:13;;;;;;;7.40;4.85;;;;;;;-144.57;100.00;62443.72;5009854;28;20401;-62
2023/03/15 07:53:38;;;;;;;8.38;4.85;;;;;;;-144.57;100.00;62443.72;5007506;28;20073;-63
2023/03/15 07:56:04;;;;;;;7.00;4.90;;;;;;;-144.57;100.00;62443.72;5009729;28;20050;-63
2023/03/15 07:58:30;;;;;;;10.45;4.85;;;;;;;-144.57;100.00;62443.72;4974490;28;20434;-63
2023/03/15 08:00:56;;;;;;;9.85;4.55;;;;;;;-144.57;100.00;62443.72;5006419;28;20045;-63
2023/03/15 08:03:28;;;;;;;6.05;4.65;;;;;;;-144.57;100.00;62443.72;5006292;28;20129;-62
2023/03/15 08:05:54;;;;;;;7.40;4.80;;;;;;;-144.57;100.00;62443.72;5009850;28;20053;-63
2023/03/15 08:08:19;;;;;;;9.52;5.07;;;;;;;-144.57;100.00;62443.72;5009485;28;20073;-61
2023/03/15 08:10:45;;;;;;;9.55;5.47;;;;;;;-144.57;100.00;62443.72;5010223;28;20077;-62
2023/03/15 08:13:12;;;;;;;8.68;5.13;;;;;;;-144.57;100.00;62443.72;5008705;28;20050;-62
2023/03/15 08:15:37;;;;;;;9.27;5.07;;;;;;;-144.57;100.00;62443.72;5008628;28;20058;-64
2023/03/15 08:18:05;;;;;;;11.25;5.35;;;;;;;-144.57;100.00;62443.72;5007688;28;20048;-63
2023/03/15 08:20:32;;;;;;;8.50;5.20;;;;;;;-144.57;100.00;62443.72;5004134;28;20054;-63
2023/03/15 08:22:58;;;;;;;9.10;4.97;;;;;;;-144.57;100.00;62443.72;4991287;28;20511;-62
2023/03/15 08:25:24;;;;;;;9.20;4.95;;;;;;;-144.57;100.00;62443.72;5008308;28;20062;-62
2023/03/15 08:27:50;;;;;;;11.10;5.30;;;;;;;-144.57;100.00;62443.72;5007592;28;20064;-63
2023/03/15 08:30:17;;;;;;;9.15;5.05;;;;;;;-144.57;100.00;62443.72;5007981;28;20042;-63
2023/03/15 08:32:45;;;;;;;7.53;5.60;;;;;;;-144.57;100.00;62443.72;5007824;28;20651;-63
2023/03/15 08:35:12;;;;;;;9.63;5.57;;;;;;;-144.57;100.00;62443.72;4988236;28;20038;-64
2023/03/15 08:37:38;;;;;;;11.05;5.78;;;;;;;-144.57;100.00;62443.72;4989989;28;20041;-62
2023/03/15 08:40:08;;;;;;;9.60;5.57;;;;;;;-144.57;100.00;62443.72;5009011;28;20052;-62
2023/03/15 08:42:35;;;;;;;11.43;6.18;;;;;;;-144.57;100.00;62443.72;5011399;28;20046;-61
2023/03/15 08:45:05;;;;;;;9.45;5.80;;;;;;;-144.57;100.00;62443.72;5013052;28;20054;-63
2023/03/15 08:47:34;;;;;;;9.88;5.63;;;;;;;-144.57;100.00;62443.72;5012964;28;20045;-62
2023/03/15 08:50:04;;;;;;;8.45;5.93;;;;;;;-144.57;100.00;62443.72;5011971;28;20049;-63
2023/03/15 08:52:30;;;;;;;10.52;6.20;;;;;;;-144.57;100.00;62443.72;4995086;28;20134;-63
2023/03/15 08:54:56;;;;;;;8.98;6.43;;;;;;;-144.57;100.00;62443.72;5000223;28;20460;-63
2023/03/15 08:57:24;;;;;;;9.32;6.05;;;;;;;-144.57;100.00;62443.72;5009948;28;20498;-62
2023/03/15 08:59:54;;;;;;;8.73;5.75;;;;;;;-144.57;100.00;62443.72;4995700;28;20042;-60
2023/03/15 09:02:21;;;;;;;12.07;5.80;;;;;;;-144.57;100.00;62443.72;5011652;28;20050;-64
2023/03/15 09:04:47;;;;;;;12.63;6.78;;;;;;;-144.57;100.00;62443.72;5011667;28;20309;-62
2023/03/15 09:07:14;;;;;;;12.40;6.95;;;;;;;-144.57;100.00;62443.72;4994109;28;20053;-62
2023/03/15 09:09:40;;;;;;;10.50;6.95;;;;;;;-144.57;100.00;62443.72;5012717;28;20033;-64
2023/03/15 09:12:07;;;;;;;12.00;7.30;;;;;;;-144.57;100.00;62443.72;5011355;28;20119;-63
2023/03/15 09:14:32;;;;;;;11.27;6.80;;;;;;;-144.57;100.00;62443.72;5011618;28;20042;-63
2023/03/15 09:16:58;;;;;;;11.27;6.72;;;;;;;-144.57;100.00;62443.72;4994524;28;20060;-62
2023/03/15 09:19:24;;;;;;;10.73;7.05;;;;;;;-144.57;100.00;62443.72;5009820;28;20212;-64
2023/03/15 09:21:50;;;;;;;11.65;7.35;;;;;;;-144.57;100.00;62443.72;5010161;28;20515;-63
2023/03/15 09:24:16;;;;;;;8.50;6.22;;;;;;;-144.57;100.00;62443.72;5011722;28;20399;-63
2023/03/15 09:26:41;;;;;;;13.50;6.80;;;;;;;-144.57;100.00;62443.72;5011102;28;20049;-62
2023/03/15 09:29:08;;;;;;;12.43;6.70;;;;;;;-144.57;100.00;62443.72;5010525;28;20459;-65
2023/03/15 09:31:34;;;;;;;11.73;6.85;;;;;;;-144.57;100.00;62443.72;5011474;28;20061;-64
2023/03/15 09:34:00;;;;;;;10.65;7.13;;;;;;;-144.57;100.00;62443.72;5010450;28;20176;-62
2023/03/15 09:36:26;;;;;;;13.10;7.10;;;;;;;-144.57;100.00;62443.72;4991546;28;20050;-63
2023/03/15 09:38:51;;;;;;;10.55;7.20;;;;;;;-144.57;100.00;62443.72;4991013;28;20046;-62
2023/03/15 09:41:25;;;;;;;13.52;6.75;;;;;;;-144.57;100.00;62443.72;5009004;28;20412;-63
2023/03/15 09:44:03;;;;;;;9.68;6.80;;;;;;;-144.57;100.00;62443.72;5010005;28;20044;-62
2023/03/15 09:46:32;;;;;;;8.43;6.72;;;;;;;-144.57;100.00;62443.72;4991281;28;20084;-62
2023/03/15 09:49:16;;;;;;;9.82;6.45;;;;;;;-144.57;100.00;62443.72;5007076;28;20041;-63
2023/03/15 09:51:57;;;;;;;11.10;6.85;;;;;;;-144.57;100.00;62443.72;5008470;28;20120;-63
2023/03/15 09:54:53;;;;;;;12.68;7.40;;;;;;;-144.57;100.00;62443.72;4970037;28;20038;-64
2023/03/15 09:57:28;;;;;;;12.25;7.25;;;;;;;-144.57;100.00;62443.72;5009785;28;20069;-64
2023/03/15 09:59:54;;;;;;;10.43;7.22;;;;;;;-144.57;100.00;62443.72;5010204;28;20038;-63
2023/03/15 10:02:30;;;;;;;10.15;7.50;;;;;;;-144.57;100.00;62443.72;5010330;28;20096;-64
2023/03/15 10:05:05;;;;;;;10.57;7.43;;;;;;;-144.57;100.00;62443.72;5009190;28;20092;-64
2023/03/15 10:07:31;;;;;;;10.73;7.25;;;;;;;-144.57;100.00;62443.72;5011358;28;20127;-63
2023/03/15 10:09:57;;;;;;;11.35;7.43;;;;;;;-144.57;100.00;62443.72;5012103;28;20084;-62
2023/03/15 10:12:29;;;;;;;10.20;7.32;;;;;;;-144.57;100.00;62443.72;4992867;28;20168;-62
2023/03/15 10:14:58;;;;;;;9.75;7.15;;;;;;;-144.57;100.00;62443.72;4992196;28;20057;-63
2023/03/15 10:17:44;;;;;;;13.00;7.72;;;;;;;-144.57;100.00;62443.72;5007527;28;20467;-61
2023/03/15 10:20:17;;;;;;;10.35;7.45;;;;;;;-144.57;100.00;62443.72;5009231;28;20053;-61
2023/03/15 10:22:58;;;;;;;15.52;8.18;;;;;;;-144.57;100.00;62443.72;5010730;28;20121;-62
2023/03/15 10:25:26;;;;;;;11.07;7.05;;;;;;;-144.57;100.00;62443.72;5006535;28;20104;-62
2023/03/15 10:27:56;;;;;;;10.18;7.40;;;;;;;-144.57;100.00;62443.72;4990234;28;20038;-62
2023/03/15 10:30:25;;;;;;;12.20;7.30;;;;;;;-144.57;100.00;62443.72;4990832;28;20499;-62
2023/03/15 10:32:57;;;;;;;10.77;7.20;;;;;;;-144.57;100.00;62443.72;5009151;28;20566;-62
2023/03/15 10:35:23;;;;;;;12.70;8.13;;;;;;;-144.57;100.00;62443.72;4986775;28;20041;-61
2023/03/15 10:37:49;;;;;;;10.35;7.40;;;;;;;-144.57;100.00;62443.72;5008920;28;20042;-62
2023/03/15 10:40:40;;;;;;;13.55;7.80;;;;;;;-144.57;100.00;62443.72;5009216;28;20092;-61
2023/03/15 10:43:35;;;;;;;9.95;7.22;;;;;;;-144.57;100.00;62443.72;5010042;28;20688;-61
2023/03/15 10:46:04;;;;;;;12.18;7.45;;;;;;;-144.57;100.00;62443.72;4993079;28;20092;-62
2023/03/15 10:48:32;;;;;;;12.15;7.65;;;;;;;-144.57;100.00;62443.72;4992311;28;20073;-63
2023/03/15 10:51:18;;;;;;;10.13;7.40;;;;;;;-144.57;100.00;62443.72;5010101;28;20566;-62
2023/03/15 10:53:59;;;;;;;11.75;8.38;;;;;;;-144.57;100.00;62443.72;4990067;28;20140;-61
2023/03/15 10:56:28;;;;;;;12.20;7.93;;;;;;;-144.57;100.00;62443.72;5010515;28;20052;-62
2023/03/15 10:58:55;;;;;;;11.98;8.15;;;;;;;-144.57;100.00;62443.72;4987354;28;20488;-62
2023/03/15 11:01:24;;;;;;;12.43;8.25;;;;;;;-144.57;100.00;62443.72;4988995;28;20444;-61
2023/03/15 11:04:16;;;;;;;11.40;7.75;;;;;;;-144.57;100.00;62443.72;4990557;28;20559;-62
2023/03/15 11:06:43;;;;;;;12.10;7.68;;;;;;;-144.57;100.00;62443.72;4987467;28;20145;-62
2023/03/15 11:09:13;;;;;;;11.95;8.32;;;;;;;-144.57;100.00;62443.72;4990544;28;20042;-66
2023/03/15 11:11:58;;;;;;;11.60;7.63;;;;;;;-144.57;100.00;62443.72;5003245;28;20133;-64
2023/03/15 11:14:31;;;;;;;12.25;8.00;;;;;;;-144.57;100.00;62443.72;4989270;28;20061;-62
2023/03/15 11:16:58;;;;;;;11.57;8.07;;;;;;;-144.57;100.00;62443.72;4988896;28;20078;-62
2023/03/15 11:19:30;;;;;;;15.60;7.93;;;;;;;-144.57;100.00;62443.72;4989088;28;20038;-60
2023/03/15 11:21:57;;;;;;;12.38;7.80;;;;;;;-144.57;100.00;62443.72;5004638;28;20503;-63